createdAt,value
2022-08-23T00:01:39.521Z,15.90
2022-08-23T00:04:11.622Z,16.92
2022-08-23T00:06:40.256Z,17.90
2022-08-23T00:09:08.663Z,17.92
2022-08-23T00:11:44.448Z,17.20
2022-08-23T00:14:14.061Z,16.70
2022-08-23T00:16:41.869Z,16.42
2022-08-23T00:19:11.370Z,16.38
2022-08-23T00:21:40.345Z,16.00
2022-08-23T00:24:09.125Z,15.15
2022-08-23T00:26:55.190Z,16.70
2022-08-23T00:29:26.305Z,16.60
2022-08-23T00:31:53.784Z,17.13
2022-08-23T00:34:22.197Z,16.95
2022-08-23T00:36:50.805Z,16.38
2022-08-23T00:39:18.849Z,17.70
2022-08-23T00:41:47.737Z,18.27
2022-08-23T00:44:52.291Z,17.67
2022-08-23T00:47:43.086Z,17.70
2022-08-23T00:50:24.380Z,18.88
2022-08-23T00:53:04.093Z,17.10
2022-08-23T00:55:33.189Z,18.13
2022-08-23T00:58:01.425Z,17.00
2022-08-23T01:00:29.792Z,17.08
2022-08-23T01:02:58.041Z,15.35
2022-08-23T01:05:30.227Z,16.50
2022-08-23T01:08:00.404Z,16.42
2022-08-23T01:10:33.431Z,17.48
2022-08-23T01:13:39.653Z,17.10
2022-08-23T01:16:19.316Z,16.55
2022-08-23T01:18:48.071Z,17.52
2022-08-23T01:21:21.442Z,17.55
2022-08-23T01:26:23.253Z,17.58
2022-08-23T01:28:52.249Z,17.27
2022-08-23T01:31:22.409Z,17.98
2022-08-23T01:33:55.638Z,18.80
2022-08-23T01:38:53.343Z,17.73
2022-08-23T01:41:21.032Z,18.80
2022-08-23T01:43:48.621Z,18.67
2022-08-23T01:46:21.552Z,17.90
2022-08-23T01:48:51.573Z,17.17
2022-08-23T01:51:20.339Z,18.50
2022-08-23T01:53:48.447Z,17.08
2022-08-23T01:56:20.065Z,17.45
2022-08-23T01:59:11.492Z,16.92
2022-08-23T02:01:48.124Z,17.98
2022-08-23T02:04:16.998Z,15.52
2022-08-23T02:06:44.628Z,16.50
2022-08-23T02:09:17.849Z,16.63
2022-08-23T02:11:46.844Z,17.33
2022-08-23T02:14:18.801Z,18.00
2022-08-23T02:17:03.870Z,17.50
2022-08-23T02:19:34.605Z,17.75
2022-08-23T02:22:04.963Z,18.75
2022-08-23T02:24:32.497Z,18.60
2022-08-23T02:27:02.672Z,18.83
2022-08-23T02:29:38.358Z,18.85
2022-08-23T02:32:09.905Z,19.23
2022-08-23T02:34:38.432Z,18.70
2022-08-23T02:37:07.574Z,21.60
2022-08-23T02:39:35.506Z,22.08
2022-08-23T02:42:07.332Z,23.98
2022-08-23T02:44:38.013Z,22.35
2022-08-23T02:47:07.920Z,22.48
2022-08-23T02:49:38.461Z,22.23
2022-08-23T02:52:06.929Z,23.35
2022-08-23T02:54:35.932Z,21.25
2022-08-23T02:57:04.335Z,22.40
2022-08-23T02:59:32.442Z,23.73
2022-08-23T03:01:59.954Z,22.38
2022-08-23T03:04:39.276Z,22.58
2022-08-23T03:07:06.670Z,22.67
2022-08-23T03:09:35.212Z,22.25
2022-08-23T03:12:03.065Z,22.50
2022-08-23T03:14:33.225Z,22.67
2022-08-23T03:17:01.166Z,23.05
2022-08-23T03:19:29.092Z,22.77
2022-08-23T03:21:56.476Z,21.42
2022-08-23T03:24:24.195Z,21.35
2022-08-23T03:26:51.958Z,20.92
2022-08-23T03:29:19.942Z,21.27
2022-08-23T03:32:00.981Z,22.60
2022-08-23T03:34:31.054Z,23.00
2022-08-23T03:36:59.555Z,22.13
2022-08-23T03:39:27.503Z,21.75
2022-08-23T03:41:56.346Z,21.48
2022-08-23T03:44:23.829Z,21.45
2022-08-23T03:46:51.810Z,21.40
2022-08-23T03:49:19.602Z,20.65
2022-08-23T03:51:55.312Z,20.70
2022-08-23T03:54:23.136Z,21.55
2022-08-23T03:57:03.287Z,21.02
2022-08-23T03:59:36.867Z,22.80
2022-08-23T04:02:08.085Z,22.50
2022-08-23T04:04:36.944Z,22.27
2022-08-23T04:07:32.253Z,22.27
2022-08-23T04:09:59.994Z,23.33
2022-08-23T04:12:32.888Z,23.48
2022-08-23T04:15:02.495Z,22.45
2022-08-23T04:17:32.704Z,20.75
2022-08-23T04:20:01.087Z,20.75
2022-08-23T04:22:29.765Z,19.92
2022-08-23T04:24:57.440Z,19.45
2022-08-23T04:27:24.985Z,21.02
2022-08-23T04:29:54.027Z,19.75
2022-08-23T04:33:17.987Z,21.23
2022-08-23T04:35:47.030Z,19.92
2022-08-23T04:38:24.149Z,21.73
2022-08-23T04:41:13.966Z,20.02
2022-08-23T04:43:44.223Z,19.67
2022-08-23T04:46:16.898Z,21.08
2022-08-23T04:48:47.284Z,21.67
2022-08-23T04:51:15.771Z,21.15
2022-08-23T04:53:44.375Z,20.38
2022-08-23T04:56:31.124Z,23.58
2022-08-23T04:58:58.675Z,22.27
2022-08-23T05:01:26.985Z,21.52
2022-08-23T05:03:55.775Z,21.20
2022-08-23T05:06:25.243Z,21.00
2022-08-23T05:08:53.130Z,19.83
2022-08-23T05:11:21.038Z,18.88
2022-08-23T05:13:50.117Z,17.63
2022-08-23T05:16:17.551Z,18.02
2022-08-23T05:19:11.071Z,18.65
2022-08-23T05:21:44.130Z,17.75
2022-08-23T05:24:14.067Z,16.30
2022-08-23T05:26:43.521Z,17.73
2022-08-23T05:29:11.166Z,16.65
2022-08-23T05:31:44.494Z,17.02
2022-08-23T05:34:15.819Z,17.75
2022-08-23T05:36:55.673Z,15.95
2022-08-23T05:39:35.909Z,16.17
2022-08-23T05:42:12.641Z,14.93
2022-08-23T05:44:41.157Z,16.52
2022-08-23T05:47:12.879Z,15.35
2022-08-23T05:49:56.509Z,15.30
2022-08-23T05:52:26.452Z,15.68
2022-08-23T05:54:53.886Z,14.55
2022-08-23T05:57:40.862Z,13.20
2022-08-23T06:00:12.709Z,13.18
2022-08-23T06:02:47.539Z,14.82
2022-08-23T06:05:17.076Z,14.77
2022-08-23T06:07:45.970Z,13.10
2022-08-23T06:10:16.235Z,12.73
2022-08-23T06:12:49.617Z,12.85
2022-08-23T06:15:17.481Z,13.00
2022-08-23T06:17:44.901Z,12.07
2022-08-23T06:20:15.933Z,12.00
2022-08-23T06:23:12.461Z,12.27
2022-08-23T06:25:42.625Z,12.45
2022-08-23T06:28:15.851Z,11.75
2022-08-23T06:30:43.672Z,11.75
2022-08-23T06:33:14.084Z,11.50
2022-08-23T06:35:49.176Z,11.40
2022-08-23T06:38:45.279Z,11.57
2022-08-23T06:41:39.008Z,11.63
2022-08-23T06:44:25.001Z,10.43
2022-08-23T06:47:11.605Z,9.85
2022-08-23T06:49:40.091Z,10.63
2022-08-23T06:52:27.678Z,9.98
2022-08-23T06:54:59.407Z,9.35
2022-08-23T06:57:45.857Z,9.05
2022-08-23T07:00:31.739Z,10.25
2022-08-23T07:03:12.753Z,9.68
2022-08-23T07:06:03.826Z,9.70
2022-08-23T07:08:35.451Z,9.50
2022-08-23T07:11:03.333Z,9.75
2022-08-23T07:13:31.179Z,9.18
2022-08-23T07:16:00.321Z,9.77
2022-08-23T07:18:28.519Z,9.38
2022-08-23T07:20:58.601Z,10.80
2022-08-23T07:23:27.764Z,9.82
2022-08-23T07:25:56.780Z,13.88
2022-08-23T07:28:28.769Z,10.07
2022-08-23T07:30:59.647Z,11.65
2022-08-23T07:33:29.896Z,10.18
2022-08-23T07:36:07.396Z,10.68
2022-08-23T07:38:36.359Z,10.02
2022-08-23T07:41:04.991Z,9.90
2022-08-23T07:43:34.290Z,10.43
2022-08-23T07:46:04.237Z,10.32
2022-08-23T07:48:52.853Z,11.70
2022-08-23T07:51:25.209Z,11.48
2022-08-23T07:53:52.758Z,11.18
2022-08-23T07:56:21.984Z,10.23
2022-08-23T07:59:09.028Z,10.63
2022-08-23T08:02:02.430Z,10.40
2022-08-23T08:04:31.029Z,10.70
2022-08-23T08:07:18.299Z,11.85
2022-08-23T08:09:50.184Z,10.50
2022-08-23T08:12:17.896Z,11.38
2022-08-23T08:14:48.745Z,11.30
2022-08-23T08:17:18.626Z,10.75
2022-08-23T08:20:05.391Z,11.65
2022-08-23T08:22:36.171Z,10.98
2022-08-23T08:25:11.318Z,9.70
2022-08-23T08:27:42.030Z,12.55
2022-08-23T08:30:11.842Z,11.23
2022-08-23T08:32:46.991Z,12.30
2022-08-23T08:35:16.097Z,11.40
2022-08-23T08:37:44.284Z,11.32
2022-08-23T08:40:12.128Z,10.77
2022-08-23T08:43:05.766Z,12.30
2022-08-23T08:45:57.579Z,11.15
2022-08-23T08:48:29.748Z,11.48
2022-08-23T08:51:01.279Z,11.13
2022-08-23T08:53:32.920Z,11.13
2022-08-23T08:56:39.711Z,12.55
2022-08-23T09:01:53.133Z,10.73
2022-08-23T09:04:31.253Z,10.93
2022-08-23T09:07:07.479Z,11.10
2022-08-23T09:10:07.069Z,11.48
2022-08-23T09:13:14.862Z,11.32
2022-08-23T09:16:11.996Z,11.93
2022-08-23T09:18:39.596Z,10.77
2022-08-23T09:21:09.416Z,11.18
2022-08-23T09:23:39.759Z,11.18
2022-08-23T09:26:30.599Z,12.05
2022-08-23T09:29:26.330Z,12.30
2022-08-23T09:32:25.836Z,12.43
2022-08-23T09:35:11.548Z,11.88
2022-08-23T09:38:15.983Z,12.48
2022-08-23T09:40:48.071Z,11.35
2022-08-23T09:43:27.001Z,12.63
2022-08-23T09:45:59.957Z,13.20
2022-08-23T09:48:34.843Z,11.20
2022-08-23T09:51:35.026Z,11.30
2022-08-23T09:54:27.992Z,11.30
2022-08-23T09:57:01.280Z,11.85
2022-08-23T09:59:39.696Z,11.35
2022-08-23T10:02:24.388Z,11.00
2022-08-23T10:04:57.902Z,11.38
2022-08-23T10:07:42.905Z,11.90
2022-08-23T10:10:36.134Z,12.27
2022-08-23T10:13:06.573Z,12.10
2022-08-23T10:15:59.279Z,11.63
2022-08-23T10:18:58.960Z,11.32
2022-08-23T10:21:41.609Z,10.95
2022-08-23T10:24:19.419Z,10.75
2022-08-23T10:27:29.433Z,10.18
2022-08-23T10:30:13.332Z,10.68
2022-08-23T10:32:54.484Z,8.85
2022-08-23T10:35:22.934Z,9.90
2022-08-23T10:38:33.729Z,9.52
2022-08-23T10:41:34.861Z,8.95
2022-08-23T10:44:36.022Z,11.23
2022-08-23T10:47:30.903Z,9.30
2022-08-23T10:50:04.079Z,9.30
2022-08-23T10:52:40.618Z,9.40
2022-08-23T10:55:34.809Z,8.13
2022-08-23T10:58:06.420Z,8.80
2022-08-23T11:00:34.641Z,7.72
2022-08-23T11:03:11.235Z,8.20
2022-08-23T11:05:39.378Z,7.43
2022-08-23T11:08:37.124Z,7.50
2022-08-23T11:13:57.017Z,7.50
2022-08-23T11:16:29.963Z,7.78
2022-08-23T11:18:58.881Z,8.18
2022-08-23T11:21:46.462Z,7.93
2022-08-23T11:24:16.468Z,7.13
2022-08-23T11:26:45.299Z,6.35
2022-08-23T11:29:25.639Z,6.72
2022-08-23T11:32:22.189Z,6.22
2022-08-23T11:35:22.603Z,6.18
2022-08-23T11:37:57.280Z,6.13
2022-08-23T11:40:42.516Z,6.47
2022-08-23T11:43:14.695Z,7.05
2022-08-23T11:45:46.665Z,6.82
2022-08-23T11:48:22.947Z,5.82
2022-08-23T11:51:12.022Z,6.13
2022-08-23T11:53:54.900Z,5.32
2022-08-23T11:56:45.630Z,5.65
2022-08-23T11:59:41.638Z,6.28
2022-08-23T12:02:35.588Z,6.28
2022-08-23T12:05:19.668Z,5.72
2022-08-23T12:08:17.516Z,5.75
2022-08-23T12:10:45.495Z,6.57
2022-08-23T12:13:51.908Z,6.75
2022-08-23T12:16:33.978Z,7.03
2022-08-23T12:19:07.334Z,6.15
2022-08-23T12:21:40.190Z,6.93
2022-08-23T12:24:22.387Z,6.53
2022-08-23T12:27:13.519Z,5.75
2022-08-23T12:29:55.647Z,6.28
2022-08-23T12:32:31.316Z,7.20
2022-08-23T12:35:17.071Z,6.82
2022-08-23T12:37:56.823Z,6.18
2022-08-23T12:40:46.388Z,6.15
2022-08-23T12:43:17.425Z,5.60
2022-08-23T12:45:53.993Z,6.30
2022-08-23T12:48:27.574Z,6.38
2022-08-23T12:51:03.737Z,6.47
2022-08-23T12:53:45.420Z,6.78
2022-08-23T12:56:21.009Z,6.07
2022-08-23T12:58:57.792Z,6.75
2022-08-23T13:01:30.026Z,6.57
2022-08-23T13:04:19.143Z,7.70
2022-08-23T13:06:50.937Z,6.07
2022-08-23T13:41:39.375Z,7.30
2022-08-23T13:44:10.000Z,7.03
2022-08-23T13:49:50.182Z,8.07
2022-08-23T13:52:45.892Z,6.80
2022-08-23T13:55:05.783Z,8.27
2022-08-23T13:57:37.315Z,7.90
2022-08-23T14:00:08.579Z,7.10
2022-08-23T14:02:38.295Z,6.65
2022-08-23T14:05:07.245Z,6.95
2022-08-23T14:07:35.368Z,6.70
2022-08-23T14:10:04.899Z,7.63
2022-08-23T14:12:33.790Z,8.07
2022-08-23T14:15:03.626Z,8.02
2022-08-23T14:17:41.294Z,6.45
2022-08-23T14:23:04.873Z,6.97
2022-08-23T14:25:39.173Z,7.97
2022-08-23T14:28:07.094Z,7.90
2022-08-23T14:30:37.077Z,7.68
2022-08-23T14:33:06.373Z,7.97
2022-08-23T14:35:34.137Z,7.03
2022-08-23T14:38:04.081Z,7.90
2022-08-23T14:40:33.466Z,7.60
2022-08-23T14:43:01.610Z,6.80
2022-08-23T14:45:29.204Z,6.93
2022-08-23T14:47:56.774Z,7.43
2022-08-23T14:50:24.464Z,8.20
2022-08-23T14:52:56.775Z,7.45
2022-08-23T14:55:25.189Z,8.73
2022-08-23T14:57:53.009Z,10.73
2022-08-23T15:00:21.349Z,8.30
2022-08-23T15:02:50.447Z,8.75
2022-08-23T15:05:18.732Z,9.25
2022-08-23T15:07:46.251Z,8.75
2022-08-23T15:13:27.351Z,8.38
2022-08-23T15:15:52.890Z,8.07
2022-08-23T15:18:20.570Z,8.18
2022-08-23T15:20:49.159Z,7.07
2022-08-23T15:23:21.094Z,7.97
2022-08-23T15:25:49.984Z,8.48
2022-08-23T15:28:20.238Z,7.93
2022-08-23T15:30:49.500Z,8.02
2022-08-23T15:33:17.928Z,8.15
2022-08-23T15:35:51.947Z,8.10
2022-08-23T15:38:23.013Z,7.03
2022-08-23T15:40:52.773Z,6.70
2022-08-23T15:43:22.003Z,7.55
2022-08-23T15:45:49.609Z,5.72
2022-08-23T15:48:24.669Z,5.95
2022-08-23T15:50:52.741Z,6.53
2022-08-23T15:53:21.442Z,6.60
2022-08-23T15:55:49.383Z,6.13
2022-08-23T15:58:20.738Z,6.35
2022-08-23T16:00:48.843Z,6.25
2022-08-23T16:03:20.578Z,8.15
2022-08-23T16:05:52.287Z,5.70
2022-08-23T16:08:28.673Z,6.15
2022-08-23T16:10:57.480Z,6.65
2022-08-23T16:13:25.921Z,6.50
2022-08-23T16:15:53.573Z,7.30
2022-08-23T16:18:21.230Z,6.05
2022-08-23T16:20:48.728Z,6.18
2022-08-23T16:23:23.069Z,6.35
2022-08-23T16:25:51.849Z,6.50
2022-08-23T16:28:19.300Z,7.72
2022-08-23T16:30:47.293Z,6.50
2022-08-23T16:33:14.910Z,7.05
2022-08-23T16:35:42.548Z,6.30
2022-08-23T16:38:10.183Z,7.15
2022-08-23T16:40:37.624Z,6.57
2022-08-23T16:43:05.104Z,6.47
2022-08-23T16:45:32.981Z,7.20
2022-08-23T16:48:00.762Z,7.18
2022-08-23T16:50:28.388Z,7.00
2022-08-23T16:52:55.982Z,7.10
2022-08-23T16:55:24.573Z,8.18
2022-08-23T16:57:52.603Z,7.68
2022-08-23T17:00:20.635Z,6.85
2022-08-23T17:02:48.631Z,7.97
2022-08-23T17:05:19.033Z,7.97
2022-08-23T17:07:48.059Z,7.22
2022-08-23T17:10:17.336Z,8.10
2022-08-23T17:12:47.222Z,6.82
2022-08-23T17:15:29.345Z,8.10
2022-08-23T17:17:57.308Z,8.60
2022-08-23T17:20:26.736Z,8.88
2022-08-23T17:22:55.866Z,7.57
2022-08-23T17:25:24.111Z,8.02
2022-08-23T17:27:53.386Z,7.45
2022-08-23T17:30:22.900Z,8.27
2022-08-23T17:32:50.876Z,7.32
2022-08-23T17:35:20.239Z,8.45
2022-08-23T17:37:48.417Z,8.18
2022-08-23T17:40:21.112Z,8.45
2022-08-23T17:42:49.944Z,8.93
2022-08-23T17:45:18.583Z,9.70
2022-08-23T17:47:47.014Z,8.13
2022-08-23T17:50:16.423Z,9.43
2022-08-23T17:52:45.212Z,7.53
2022-08-23T17:55:17.124Z,7.38
2022-08-23T17:57:46.400Z,9.93
2022-08-23T18:00:16.995Z,7.05
2022-08-23T18:02:44.495Z,8.18
2022-08-23T18:05:12.946Z,7.75
2022-08-23T18:07:40.463Z,8.73
2022-08-23T18:10:09.759Z,8.43
2022-08-23T18:12:37.491Z,7.55
2022-08-23T18:15:06.008Z,7.60
2022-08-23T18:17:36.722Z,8.43
2022-08-23T18:20:06.269Z,8.27
2022-08-23T18:22:33.608Z,7.47
2022-08-23T18:25:01.251Z,7.95
2022-08-23T18:27:47.969Z,8.10
2022-08-23T18:30:15.702Z,8.30
2022-08-23T18:32:43.863Z,8.07
2022-08-23T18:35:11.479Z,7.90
2022-08-23T18:37:38.867Z,7.90
2022-08-23T18:40:09.911Z,7.90
2022-08-23T18:42:38.215Z,8.43
2022-08-23T18:45:07.088Z,8.45
2022-08-23T18:47:35.490Z,7.80
2022-08-23T18:50:04.203Z,7.50
2022-08-23T18:52:32.701Z,7.80
2022-08-23T18:55:00.678Z,8.35
2022-08-23T18:57:28.187Z,8.57
2022-08-23T18:59:55.722Z,7.95
2022-08-23T19:02:24.383Z,7.20
2022-08-23T19:04:53.440Z,7.97
2022-08-23T19:07:20.937Z,7.65
2022-08-23T19:09:48.545Z,8.63
2022-08-23T19:12:16.113Z,8.82
2022-08-23T19:14:43.496Z,8.90
2022-08-23T19:17:11.503Z,7.72
2022-08-23T19:19:39.219Z,8.00
2022-08-23T19:22:06.972Z,7.68
2022-08-23T19:24:35.017Z,7.97
2022-08-23T19:27:02.854Z,8.32
2022-08-23T19:29:31.969Z,8.10
2022-08-23T19:31:59.971Z,8.07
2022-08-23T19:34:27.546Z,8.45
2022-08-23T19:37:01.133Z,8.70
2022-08-23T19:39:31.783Z,7.95
2022-08-23T19:42:00.235Z,7.75
2022-08-23T19:44:28.344Z,8.45
2022-08-23T19:46:56.680Z,8.68
2022-08-23T19:49:25.097Z,7.90
2022-08-23T19:51:53.284Z,8.30
2022-08-23T19:54:21.142Z,8.77
2022-08-23T19:56:52.049Z,9.40
2022-08-23T19:59:24.597Z,8.63
2022-08-23T20:01:53.873Z,7.90
2022-08-23T20:04:22.231Z,8.73
2022-08-23T20:06:50.676Z,9.15
2022-08-23T20:09:19.762Z,8.38
2022-08-23T20:11:47.335Z,8.95
2022-08-23T20:14:15.280Z,8.20
2022-08-23T20:16:43.254Z,9.35
2022-08-23T20:19:11.322Z,8.90
2022-08-23T20:21:41.021Z,8.93
2022-08-23T20:24:14.105Z,7.95
2022-08-23T20:26:47.578Z,8.82
2022-08-23T20:29:20.698Z,8.23
2022-08-23T20:34:17.948Z,8.25
2022-08-23T20:36:45.837Z,9.00
2022-08-23T20:39:13.408Z,9.40
2022-08-23T20:41:41.413Z,9.43
2022-08-23T20:44:09.331Z,9.35
2022-08-23T20:46:36.828Z,9.70
2022-08-23T20:49:05.732Z,9.60
2022-08-23T20:51:36.863Z,9.07
2022-08-23T20:54:06.538Z,10.48
2022-08-23T20:56:35.528Z,9.63
2022-08-23T20:59:04.376Z,10.43
2022-08-23T21:01:32.206Z,10.30
2022-08-23T21:04:00.472Z,10.23
2022-08-23T21:06:30.897Z,10.52
2022-08-23T21:09:00.192Z,9.88
2022-08-23T21:11:28.898Z,10.70
2022-08-23T21:13:57.427Z,10.48
2022-08-23T21:16:25.424Z,9.77
2022-08-23T21:18:55.582Z,10.10
2022-08-23T21:21:24.658Z,9.95
2022-08-23T21:23:52.639Z,10.25
2022-08-23T21:26:21.379Z,9.85
2022-08-23T21:28:49.075Z,9.90
2022-08-23T21:31:20.370Z,9.77
2022-08-23T21:33:48.511Z,9.90
2022-08-23T21:36:17.051Z,9.57
2022-08-23T21:38:45.381Z,8.90
2022-08-23T21:41:41.240Z,9.05
2022-08-23T21:44:11.615Z,10.40
2022-08-23T21:46:39.801Z,9.23
2022-08-23T21:49:08.128Z,9.57
2022-08-23T21:51:38.434Z,9.20
2022-08-23T21:54:09.557Z,9.18
2022-08-23T21:56:38.149Z,8.95
2022-08-23T21:59:14.109Z,8.55
2022-08-23T22:01:42.952Z,8.60
2022-08-23T22:04:13.394Z,8.40
2022-08-23T22:06:43.850Z,8.45
2022-08-23T22:09:14.294Z,8.48
2022-08-23T22:11:44.039Z,8.43
2022-08-23T22:14:17.290Z,9.10
2022-08-23T22:16:44.993Z,9.48
2022-08-23T22:19:14.391Z,8.80
2022-08-23T22:21:43.332Z,9.00
2022-08-23T22:24:11.287Z,8.30
2022-08-23T22:26:40.607Z,8.48
2022-08-23T22:29:08.756Z,8.63
2022-08-23T22:31:37.471Z,9.55
2022-08-23T22:34:05.580Z,8.40
2022-08-23T22:36:33.568Z,8.25
2022-08-23T22:39:01.240Z,9.15
2022-08-23T22:41:30.375Z,9.07
2022-08-23T22:43:59.619Z,8.50
2022-08-23T22:46:29.307Z,9.32
2022-08-23T22:48:57.215Z,9.23
2022-08-23T22:51:27.276Z,9.50
2022-08-23T22:53:57.949Z,9.52
2022-08-23T22:56:31.141Z,9.00
2022-08-23T22:58:59.485Z,9.20
2022-08-23T23:01:34.569Z,8.98
2022-08-23T23:04:06.248Z,9.48
2022-08-23T23:09:04.460Z,9.23
2022-08-23T23:11:32.313Z,8.57
2022-08-23T23:13:59.792Z,9.48
2022-08-23T23:16:29.407Z,8.48
2022-08-23T23:19:15.875Z,9.20
2022-08-23T23:21:52.261Z,8.63
2022-08-23T23:24:23.428Z,9.55
2022-08-23T23:26:52.033Z,8.48
2022-08-23T23:29:19.891Z,9.30
2022-08-23T23:31:47.515Z,8.55
2022-08-23T23:34:15.287Z,8.90
2022-08-23T23:36:43.459Z,9.65
2022-08-23T23:39:12.451Z,8.82
2022-08-23T23:41:41.069Z,9.23
2022-08-23T23:44:09.170Z,9.40
2022-08-23T23:46:36.851Z,9.23
2022-08-23T23:49:05.731Z,9.60
2022-08-23T23:51:33.514Z,10.40
2022-08-23T23:54:01.312Z,9.55
2022-08-23T23:56:30.559Z,9.55
2022-08-23T23:58:58.840Z,9.15
